Tiempo atmosférico en la estación meteorológica de Roquetas de Mar, Almería (7 m.)



Fecha
DESCASC
Temp. máxima en grados centígrados (hora)
DESCASC
Temp. mínima en grados centígrados (hora)
DESCASC
Temp. media en grados centígrados
DESCASC
Racha de viento máxima en m/sg (hora)
DESCASC
Velocidad máxima media en intervalos de 10 minutos(hora)
DESCASC
Precipitaciones diarias en mm
DESCASC
Precipitaciones de 00:00 a 06:00 en mm
DESCASC
Precipitaciones de 06:00 a 12:00 en mm
DESCASC
Precipitaciones de 12:00 a 18:00 en mm
DESCASC
Precipitaciones de 18:00 a 24:00 en mm
DESCASC
20-10-2019 22 (01:20) 15.4 (23:59) 18.7 17.5 (09:10) 11.11 (15:30) 0.6 0 0.4 0.2 0
19-10-2019 23.3 (13:40) 15.5 (08:40) 19.4 14.72 (19:20) 9.72 (19:20) 0 0 0 0 0
18-10-2019 23.8 (16:00) 12 (06:30) 17.9 6.94 (17:30) 5 (19:50) 0 0 0 0 0
17-10-2019 -- (--) -- (--) -- -- (--) -- (--) -- 0 -- 0 0
16-10-2019 23 (16:40) 10 (00:00) 16.5 5.83 (16:50) 3.33 (15:00) 0 0 0 0 0
15-10-2019 22.8 (17:50) 12.9 (00:00) 17.8 18.61 (02:30) 11.67 (02:30) 0 0 0 0 0
14-10-2019 25 (14:20) 19.4 (00:00) 22.2 21.94 (16:40) 14.72 (16:20) 0 0 0 0 0
13-10-2019 25.3 (15:30) 17 (00:00) 21.1 6.39 (18:10) 3.61 (17:50) 0 0 0 0 0
12-10-2019 26.7 (14:40) 16.6 (00:00) 21.7 10.56 (17:00) 6.67 (17:40) 0 0 0 0 0
11-10-2019 26.4 (16:50) 19.2 (00:00) 22.8 15.28 (01:50) 9.17 (01:30) 0 0 0 0 0
10-10-2019 26.5 (13:10) 18 (00:00) 22.3 14.72 (23:30) 9.44 (23:00) 0 0 0 0 0
09-10-2019 24.9 (11:50) 15.7 (00:00) 20.3 5 (15:40) 3.33 (15:40) 0 0 0 0 0
08-10-2019 25.7 (15:00) 19.6 (00:00) 22.7 8.89 (07:30) 5.83 (17:10) 0 0 0 0 0
07-10-2019 25.1 (17:00) 15.7 (00:00) 20.4 7.22 (23:59) 5 (23:59) 0 0 0 0 0
06-10-2019 23.6 (17:10) 15.9 (00:00) 19.8 5.28 (16:00) 3.33 (15:20) 0 0 0 0 0
05-10-2019 25.2 (16:40) 16 (00:00) 20.6 6.94 (17:50) 3.89 (14:40) 0 0 0 0 0
04-10-2019 24.9 (15:50) 14.2 (00:00) 19.5 5.83 (14:40) 3.89 (14:50) 0 0 0 0 0
03-10-2019 25.8 (11:40) 14.3 (00:00) 20 8.89 (13:50) 6.11 (13:50) 0 0 0 0 0
02-10-2019 26.9 (12:40) 15.8 (00:00) 21.3 9.17 (15:50) 5.28 (22:10) 0 0 0 0 0
01-10-2019 26.5 (16:30) 16.9 (00:00) 21.7 13.33 (19:10) 8.33 (19:10) 0.2 0 0.2 0 0
30-09-2019 26 (15:30) 19 (00:00) 22.5 7.78 (02:20) 4.72 (02:20) 0 0 0 0 0
29-09-2019 27.4 (18:00) 17.7 (00:00) 22.6 6.11 (15:50) 3.89 (15:20) 0 0 0 0 0
28-09-2019 26.6 (17:00) 16.5 (00:00) 21.6 5.28 (15:40) 3.33 (15:30) 0 0 0 0 0
27-09-2019 26 (15:40) 18.2 (00:00) 22.1 6.94 (18:30) 3.89 (18:30) 0 0 0 0 0
26-09-2019 26.5 (12:40) 19.9 (00:00) 23.2 16.11 (09:20) 6.11 (08:30) 0 0 0 0 0
25-09-2019 26.9 (17:00) 15.4 (00:00) 21.1 15.28 (09:10) 5.83 (17:00) 0 0 0 0 0
24-09-2019 26.6 (14:20) 15.5 (00:00) 21.1 10.28 (19:40) 5.83 (19:50) 0 0 0 0 0
23-09-2019 26.7 (13:50) 16 (00:00) 21.4 11.39 (01:10) 6.67 (01:00) 0 0 0 0 0
22-09-2019 25.8 (12:30) 21.9 (00:00) 23.8 19.44 (18:50) 13.33 (18:50) 0 0 0 0 0

Gráficas

Temp. máximas Temp. mínimas Temp. medias Precipitaciones Rachas de viento máximas Velocidades máximas media en intervalos de 10 minutos

Datos horarios

Fecha y hora oficial Temperatura (ºC) Velocidad del viento (km/h) Dirección del viento Racha (km/h) Dirección de racha Precipitación (mm) Presión (hPa) Tendencia (hPa) Humedad (%)
2019-10-21 23:00:00 16.3 9 Este 22 Sudeste 0 1016.1 1.1 77
2019-10-21 22:00:00 15.9 6 Nordeste 7 Nordeste 0 1015.8 0.6 70
2019-10-21 21:00:00 16.8 5 Noroeste 8 Noroeste 0 1015.6 0.3 66
2019-10-21 20:00:00 18.1 3 Noroeste 6 Oeste 0 1015 -0.5 61
2019-10-21 19:00:00 19 3 Oeste 7 Sur 0 1015.2 -0.4 59
2019-10-21 18:00:00 19.3 4 Sur 11 Noroeste 0 1015.3 -0.6 59
2019-10-21 17:00:00 19.4 4 Oeste 13 Oeste 0 1015.5 -1.2 59
2019-10-21 16:00:00 19.6 6 Oeste 13 Oeste 0 1015.6 -1.5 59
2019-10-21 15:00:00 18.9 7 Sudoeste 11 Sur 0 1015.9 -1.1 62
2019-10-21 14:00:00 18.6 4 Sur 7 Sur 0 1016.7 -0.3 60
2019-10-21 13:00:00 18.6 3 Este 8 Sur 0 1017.1 0.6 53
2019-10-21 12:00:00 19.2 5 Sudeste 11 Sudeste 0 1017 1.1 47
2019-10-21 11:00:00 15.3 4 Norte 10 Norte 0 1017 1.3 75
2019-10-21 10:00:00 11.2 8 Norte 12 Norte 0 1016.5 1.2 85
2019-10-21 09:00:00 9.8 10 Norte 12 Norte 0 1015.9 0.8 84
2019-10-21 08:00:00 10.3 8 Nordeste 10 Nordeste 0 1015.7 0.7 83
2019-10-21 07:00:00 10.2 6 Nordeste 10 Nordeste 0 1015.3 0 80
2019-10-21 06:00:00 10.2 7 Nordeste 11 Norte 0 1015.1 -0.1 80
2019-10-21 05:00:00 10.5 9 Norte 11 Norte 0 1015 0.1 79
2019-10-21 04:00:00 12.1 5 Nordeste 12 Norte 0 1015.3 0.2 78
2019-10-21 03:00:00 13.7 10 Norte 19 Noroeste 0 1015.2 0.4 73
2019-10-21 02:00:00 17.3 15 Oeste 24 Oeste 0 1014.9 0.8 62
2019-10-21 01:00:00 15.4 7 Oeste 29 Noroeste 0 1015.1 1.5 67
2019-10-21 00:00:00 15.4 4 Norte 28 Oeste 0 1014.8 1.7 67
2019-10-20 23:00:00 17.7 17 Oeste 31 Oeste 0 1014.1 1.1 64
2019-10-20 22:00:00 17.4 19 Oeste 43 Oeste 0 1013.6 1.1 71
2019-10-20 21:00:00 18 27 Oeste 50 Oeste 0 1013.1 0.8 69
2019-10-20 20:00:00 18.2 21 Oeste 41 Oeste 0 1013 1.1 68
2019-10-20 19:00:00 19 27 Oeste 48 Oeste 0 1012.5 0.7 66
2019-10-20 18:00:00 19.8 25 Oeste 44 Oeste 0 1012.3 0.7 63
2019-10-20 17:00:00 20 19 Oeste 43 Sudoeste 0 1011.9 -0.2 60
2019-10-20 16:00:00 20.2 25 Oeste 62 Oeste 0 1011.8 -0.1 59
2019-10-20 15:00:00 19.5 34 Oeste 56 Oeste 0 1011.6 -0.5 61
2019-10-20 14:00:00 18.6 36 Oeste 54 Oeste 0.2 1012.1 0.5 66
2019-10-20 13:00:00 17.6 23 Oeste 41 Sudoeste 0 1011.9 1.6 72
2019-10-20 12:00:00 17.8 23 Oeste 55 Oeste 0 1012.1 3.2 71
2019-10-20 11:00:00 17.7 26 Oeste 46 Oeste 0.2 1011.6 3 72
2019-10-20 10:00:00 17 27 Oeste 63 Oeste 0.2 1010.3 1.6 77
2019-10-20 09:00:00 18.8 32 Oeste 58 Oeste 0 1008.9 0.8 71
2019-10-20 08:00:00 18.3 15 Oeste 28 Sudoeste 0 1008.6 0.7 84
2019-10-20 07:00:00 18.9 14 Oeste 43 Oeste 0 1008.7 1 87
2019-10-20 06:00:00 19.3 22 Oeste 39 Oeste 0 1008.1 0 86
2019-10-20 05:00:00 19.7 27 Oeste 47 Noroeste 0 1007.9 -0.5 83
2019-10-20 04:00:00 20 27 Oeste 53 Oeste 0 1007.7 -0.8 78
2019-10-20 03:00:00 20.5 27 Oeste 46 Oeste 0 1008.1 -0.6 76
2019-10-20 02:00:00 21.6 27 Oeste 53 Oeste 0 1008.4 -0.1 63
2019-10-20 01:00:00 21.6 31 Oeste 54 Oeste 0 1008.5 0.1 63
2019-10-20 00:00:00 20.1 23 Oeste 36 Oeste 0 1008.7 0.4 76
2019-10-19 23:00:00 19.9 23 Oeste 42 Oeste 0 1008.5 0.4 78
2019-10-19 22:00:00 20.3 22 Oeste 44 Oeste 0 1008.4 -0.1 75
2019-10-19 21:00:00 20.2 27 Oeste 50 Oeste 0 1008.3 -0.5 79
2019-10-19 20:00:00 20.4 27 Oeste 53 Oeste 0 1008.1 -1.2 80
2019-10-19 19:00:00 20.8 32 Oeste 50 Oeste 0 1008.5 -1.4 79
2019-10-19 18:00:00 21.7 31 Oeste 51 Oeste 0 1008.8 -1.6 72
2019-10-19 17:00:00 21.8 32 Oeste 48 Oeste 0 1009.3 -2.2 72
2019-10-19 16:00:00 22.5 27 Oeste 41 Oeste 0 1009.9 -2.2 72
2019-10-19 15:00:00 22.7 22 Oeste 42 Oeste 0 1010.4 -1.9 69
2019-10-19 14:00:00 22.5 22 Oeste 39 Oeste 0 1011.5 -1 72
2019-10-19 13:00:00 23.1 12 Oeste 26 Oeste 0 1012.1 -0.2 72
2019-10-19 12:00:00 21.2 8 Oeste 18 Sudoeste 0 1012.3 0.4 84
2019-10-19 11:00:00 19.7 6 Oeste 14 Oeste 0 1012.5 0.6 91
2019-10-19 10:00:00 17.5 3 Norte 9 Norte 0 1012.3 0.4 91
2019-10-19 09:00:00 16 7 Noroeste 9 Noroeste 0 1011.9 -0.1 91
2019-10-19 08:00:00 16.5 4 Norte 8 Norte 0 1011.9 -0.3 90
2019-10-19 07:00:00 17.4 5 Norte 9 Norte 0 1011.9 -1.1 90
2019-10-19 06:00:00 18.2 5 Noroeste 8 Noroeste 0 1012 -1.5 90
2019-10-19 05:00:00 18.4 4 Noroeste 11 Norte 0 1012.2 -1.5 90
2019-10-19 04:00:00 18.7 8 Norte 11 Norte 0 1013 -1.3 90
2019-10-19 03:00:00 18.1 4 Norte 8 Norte 0 1013.5 -1 89
2019-10-19 02:00:00 17 6 Norte 9 Noroeste 0 1013.7 -1 88
2019-10-19 01:00:00 15.7 8 Noroeste 10 Noroeste 0 1014.3 -0.4 86
2019-10-19 00:00:00 16.5 4 Noroeste 8 Norte 0 1014.5 -0.3 85
2019-10-18 23:00:00 17.2 4 Noroeste 9 Oeste 0 1014.7 0 84
2019-10-18 22:00:00 18.6 6 Oeste 15 Oeste 0 1014.7 -0.3 84
2019-10-18 21:00:00 19.2 10 Oeste 22 Oeste 0 1014.8 -0.6 81
2019-10-18 20:00:00 20 14 Oeste 24 Oeste 0 1014.7 -1.1 79
2019-10-18 19:00:00 21.5 12 Oeste 22 Oeste 0 1015 -1.1 71
2019-10-18 18:00:00 22 11 Oeste 25 Oeste 0 1015.4 -1.4 71
2019-10-18 17:00:00 22.4 11 Oeste 22 Sudoeste 0 1015.8 -1.8 68
2019-10-18 16:00:00 23.7 12 Oeste 21 Oeste 0 1016.1 -2 67
2019-10-18 15:00:00 22.7 14 Oeste 22 Oeste 0 1016.8 -1.1 70
2019-10-18 14:00:00 22 8 Oeste 16 Oeste 0 1017.6 -0.2 64
2019-10-18 13:00:00 21.8 10 Sudoeste 18 Oeste 0 1018.1 0.5 74
2019-10-18 12:00:00 20.3 8 Sudoeste 13 Sur 0 1017.9 0.8 85
2019-10-18 11:00:00 18.5 0 Calma 8 Noroeste 0 1017.8 0.6 91
2019-10-18 10:00:00 16.2 4 Norte 6 Norte 0 1017.6 0.3 91
2019-10-18 09:00:00 13.4 6 Norte 10 Norte 0 1017.1 -0.4 90
2019-10-18 08:00:00 12.8 8 Norte 10 Norte 0 1017.2 -0.6 90
2019-10-18 07:00:00 12.3 8 Norte 10 Norte 0 1017.3 -0.8 89
2019-10-18 06:00:00 12.3 7 Norte 9 Norte 0 1017.5 -1.1 89
2019-10-18 05:00:00 12.1 8 Norte 9 Norte 0 1017.8 -0.8 88
2019-10-18 04:00:00 12.6 6 Norte 8 Norte 0 1018.1 -0.7 88
2019-10-18 03:00:00 12.8 5 Norte 6 Norte 0 1018.6 -0.2 87
2019-10-18 02:00:00 13.5 5 Norte 7 Nordeste 0 1018.6 0.3 87
2019-10-18 01:00:00 13.9 5 Nordeste 8 Norte 0 1018.8 1.1 87
2019-10-18 00:00:00 14.1 7 Norte 9 Norte 0 1018.8 1.6 85
2019-10-17 23:00:00 14.6 8 Norte 9 Nordeste 0 1018.3 1.3 83
2019-10-17 22:00:00 16.2 4 Norte 11 Oeste 0 1017.7 0.7 80
2019-10-17 21:00:00 18.3 10 Oeste 20 Oeste 0 1017.2 0.1 78
2019-10-17 20:00:00 20 13 Oeste 24 Oeste 0 1017 -0.2 72
2019-10-17 19:00:00 21.5 17 Oeste 25 Oeste 0 1017 -0.7 66
2019-10-17 18:00:00 22.1 15 Oeste 28 Oeste 0 1017.1 -1.1 63
2019-10-17 17:00:00 22.1 17 Oeste 35 Oeste 0 1017.2 -1.6 61
2019-10-17 16:00:00 22.6 19 Oeste 30 Oeste 0 1017.7 -1.5 54
2019-10-17 15:00:00 22.3 18 Oeste 33 Sudoeste 0 1018.2 -0.9 59
2019-10-17 14:00:00 22.2 18 Oeste 30 Oeste 0 1018.8 -0.2 56
2019-10-17 13:00:00 22.1 14 Oeste 28 Oeste 0 1019.2 -- 59
2019-10-17 12:00:00 21.8 10 Oeste 21 Sudoeste 0 1019.1 1.2 60
2019-10-17 11:00:00 19.5 11 Oeste -- -- -- 1019 1.2 69
2019-10-17 10:00:00 -- -- -- -- -- -- -- -- --
2019-10-17 09:00:00 11.3 12 Noroeste 14 Noroeste 0 1017.9 0.4 86
2019-10-17 08:00:00 11.8 9 Noroeste 12 Noroeste 0 1017.8 0 86
2019-10-17 07:00:00 13.1 10 Noroeste 19 Oeste 0 1017.5 -0.8 86
2019-10-17 06:00:00 12.5 9 Noroeste 15 Noroeste 0 1017.5 -1 87
2019-10-17 05:00:00 12.4 9 Oeste 11 Oeste 0 1017.8 -0.7 87
2019-10-17 04:00:00 12.6 9 Noroeste 14 Noroeste 0 1018.3 -0.5 87
2019-10-17 03:00:00 12.5 9 Noroeste 12 Noroeste 0 1018.5 -0.2 86
2019-10-17 02:00:00 12.5 9 Noroeste 12 Noroeste 0 1018.5 0.3 86
2019-10-17 01:00:00 13.6 11 Noroeste 13 Noroeste 0 1018.8 1 86
2019-10-17 00:00:00 13.8 5 Noroeste 9 Noroeste 0 1018.7 1.2 85
2019-10-16 23:00:00 14.8 5 Noroeste 12 Noroeste 0 1018.2 0.8 83
2019-10-16 22:00:00 15.2 9 Noroeste 12 Noroeste 0 1017.8 0.2 78
2019-10-16 21:00:00 17.7 7 Noroeste 12 Oeste 0 1017.5 -0.4 74
2019-10-16 20:00:00 19.9 8 Oeste 15 Sudoeste 0 1017.4 -1 70
2019-10-16 19:00:00 21.6 9 Oeste 20 Sudoeste 0 1017.6 -1.2 65
2019-10-16 18:00:00 22.4 10 Oeste 21 Sudoeste 0 1017.9 -1.8 59
2019-10-16 17:00:00 22.7 10 Oeste 21 Oeste 0 1018.4 -2.1 60
2019-10-16 16:00:00 22.5 10 Oeste 19 Sudoeste 0 1018.8 -2.2 60
2019-10-16 15:00:00 21.6 12 Sudoeste 19 Sudoeste 0 1019.7 -1.6 60
2019-10-16 14:00:00 20.9 10 Sudoeste 16 Sudoeste 0 1020.5 -0.6 60
2019-10-16 13:00:00 20.8 9 Sur 15 Sudoeste 0 1021 0.3 58
2019-10-16 12:00:00 20.6 7 Sur 13 Sudeste 0 1021.3 1.2 57
2019-10-16 11:00:00 19 2 Nordeste 9 Norte 0 1021.1 1.3 68
2019-10-16 10:00:00 14.8 5 Norte 10 Norte 0 1020.7 0.9 86
2019-10-16 09:00:00 10.1 8 Norte 10 Norte 0 1020.1 0.2 85
2019-10-16 08:00:00 10 9 Norte 10 Norte 0 1019.8 -0.2 84
2019-10-16 07:00:00 10.4 7 Nordeste 12 Norte 0 1019.8 -0.5 84
2019-10-16 06:00:00 10.8 6 Norte 8 Norte 0 1019.9 -0.8 84
2019-10-16 05:00:00 10.9 6 Norte 9 Norte 0 1020 -0.9 84
2019-10-16 04:00:00 11.6 2 Norte 12 Norte 0 1020.3 -0.5 83
2019-10-16 03:00:00 12.1 9 Norte 12 Nordeste 0 1020.7 -0.1 82
2019-10-16 02:00:00 12.2 8 Norte 9 Norte 0 1020.9 0.5 79
2019-10-16 01:00:00 13.1 8 Norte 12 Nordeste 0 1020.8 0.7 78
2019-10-16 00:00:00 13.1 9 Norte 10 Norte 0 1020.8 1 77
2019-10-15 23:00:00 13.9 7 Norte 10 Norte 0 1020.4 1 72
2019-10-15 22:00:00 15.1 4 Nordeste 8 Este 0 1020.1 1.2 66
2019-10-15 21:00:00 16.8 3 Norte 8 Noroeste 0 1019.8 1.2 60
2019-10-15 20:00:00 19.4 6 Oeste 12 Sudoeste 0 1019.4 0.8 50
2019-10-15 19:00:00 21.1 7 Oeste 19 Oeste 0 1018.9 -0.1 44
2019-10-15 18:00:00 22.4 10 Oeste 18 Sudoeste 0 1018.6 -1.1 42
2019-10-15 17:00:00 22 11 Sudoeste 18 Oeste 0 1018.6 -1.6 45
2019-10-15 16:00:00 22 12 Sudoeste 20 Oeste 0 1019 -1.3 47
2019-10-15 15:00:00 21.4 13 Sudoeste 22 Sudoeste 0 1019.7 -0.3 52
2019-10-15 14:00:00 21.4 17 Sudoeste 24 Sudoeste 0 1020.2 1 49
2019-10-15 13:00:00 21.1 14 Sudoeste 33 Sudoeste 0 1020.3 1.5 46
2019-10-15 12:00:00 21.3 21 Sudoeste 32 Sur 0 1020 2.2 51
2019-10-15 11:00:00 20.8 14 Sur 23 Sur 0 1019.2 1.6 52
2019-10-15 10:00:00 20 12 Oeste 30 Sudoeste 0 1018.8 1.5 48
2019-10-15 09:00:00 18.8 15 Oeste 30 Oeste 0 1017.8 1.2 54
2019-10-15 08:00:00 18.9 18 Oeste 31 Oeste 0 1017.6 1.3 57
2019-10-15 07:00:00 19.6 16 Oeste 42 Oeste 0 1017.3 0.8 57
2019-10-15 06:00:00 20 24 Oeste 51 Oeste 0 1016.6 0.3 57
2019-10-15 05:00:00 20.2 28 Oeste 53 Oeste 0 1016.3 0.1 66
2019-10-15 04:00:00 20.3 29 Oeste 58 Oeste 0 1016.5 0.6 69
2019-10-15 03:00:00 20.5 42 Oeste 67 Oeste 0 1016.3 0.3 67
2019-10-15 02:00:00 20.5 37 Oeste 65 Oeste 0 1016.2 0.6 65
2019-10-15 01:00:00 21.4 37 Oeste 62 Oeste 0 1015.9 0.9 61
2019-10-15 00:00:00 21.3 37 Oeste 66 Oeste 0 1016 1.2 66
2019-10-14 23:00:00 21.3 42 Oeste 74 Oeste 0 1015.6 1.3 65
2019-10-14 22:00:00 21.5 44 Oeste 75 Oeste 0 1015 1 71
2019-10-14 21:00:00 21.6 49 Oeste 75 Oeste 0 1014.8 0.8 72
2019-10-14 20:00:00 21.2 45 Oeste 77 Oeste 0 1014.3 0.9 76
2019-10-14 19:00:00 22.2 45 Oeste 71 Oeste 0 1014 0.6 69
2019-10-14 18:00:00 23 46 Oeste 76 Oeste 0 1014 0.1 66
2019-10-14 17:00:00 23.9 46 Oeste 79 Oeste 0 1013.4 -0.9 64
2019-10-14 16:00:00 23.9 40 Oeste 70 Oeste 0 1013.4 -0.9 65
2019-10-14 15:00:00 23.9 44 Oeste 69 Oeste 0 1013.9 -0.2 65
2019-10-14 14:00:00 24.4 42 Oeste 67 Oeste 0 1014.3 -0.1 64
2019-10-14 13:00:00 23.5 41 Oeste 63 Oeste 0 1014.3 0.2 69
2019-10-14 12:00:00 23.3 35 Oeste 57 Oeste 0 1014.1 0.3 70
2019-10-14 11:00:00 22.9 32 Oeste 48 Oeste 0 1014.4 1.1 79
2019-10-14 10:00:00 22.5 19 Oeste 35 Oeste 0 1014.1 1.1 80
2019-10-14 09:00:00 21.6 26 Oeste 42 Oeste 0 1013.8 1.2 86
2019-10-14 08:00:00 20.5 14 Oeste 29 Oeste 0 1013.3 1.2 87
2019-10-14 07:00:00 21.1 18 Oeste 38 Oeste 0 1013 0.8 88
2019-10-14 06:00:00 21.4 18 Oeste 31 Oeste 0 1012.6 -0.2 87
2019-10-14 05:00:00 19.4 6 Oeste 16 Nordeste 0 1012.1 -1.8 83
2019-10-14 04:00:00 21.1 10 Este 30 Este 0 1012.2 -2.6 82
2019-10-14 03:00:00 20.8 13 Este 26 Este 0 1012.8 -2.6 88
2019-10-14 02:00:00 21 17 Este 26 Este 0 1013.9 -1.5 89
2019-10-14 01:00:00 20.1 8 Nordeste 14 Nordeste 0 1014.8 0.2 89
2019-10-14 00:00:00 19.7 8 Norte 12 Norte 0 1015.4 1.1 88
2019-10-13 23:00:00 19.9 6 Norte 10 Noroeste 0 1015.4 1.1 86
2019-10-13 22:00:00 20.4 5 Noroeste 8 Este 0 1014.6 0.1 83
2019-10-13 21:00:00 21.4 6 Este 11 Este 0 1014.3 -0.3 82
2019-10-13 20:00:00 22.8 8 Este 15 Sudeste 0 1014.3 -0.6 79
2019-10-13 19:00:00 23.9 9 Este 23 Este 0 1014.5 -1 74
2019-10-13 18:00:00 25.3 12 Este 21 Este 0 1014.6 -1.6 68
2019-10-13 17:00:00 24.9 11 Este 17 Este 0 1014.9 -2 69
2019-10-13 16:00:00 24.8 7 Sur 15 Sur 0 1015.5 -1.7 70
2019-10-13 15:00:00 24.8 7 Sur 14 Sur 0 1016.2 -1.2 71
2019-10-13 14:00:00 24.4 8 Sudeste 17 Sur 0 1016.9 -0.1 73
2019-10-13 13:00:00 24.6 9 Sudeste 16 Sudeste 0 1017.2 0.5 71
2019-10-13 12:00:00 23.6 7 Sudeste 13 Sudeste 0 1017.4 1.2 79
2019-10-13 11:00:00 21.6 3 Sudoeste 7 Sudoeste 0 1017 1 90
2019-10-13 10:00:00 20 4 Norte 10 Noroeste 0 1016.7 1.4 92
2019-10-13 09:00:00 17.2 7 Norte 9 Norte 0 1016.2 1 91
2019-10-13 08:00:00 17.2 8 Noroeste 9 Noroeste 0 1016 0.3 91
2019-10-13 07:00:00 18.1 5 Noroeste 11 Noroeste 0 1015.3 -0.7 91
2019-10-13 06:00:00 19 9 Noroeste 12 Noroeste 0 1015.2 -1 91
2019-10-13 05:00:00 18.8 10 Noroeste 13 Noroeste 0 1015.7 -0.8 90
2019-10-13 04:00:00 18.9 7 Noroeste 11 Noroeste 0 1016 -0.6 90
2019-10-13 03:00:00 19 7 Noroeste 9 Noroeste 0 1016.2 -0.5 89
2019-10-13 02:00:00 19.3 8 Noroeste 9 Noroeste 0 1016.5 0.2 88
2019-10-13 01:00:00 19.9 7 Noroeste 10 Oeste 0 1016.6 0.9 87
2019-10-13 00:00:00 20.2 9 Noroeste 11 Noroeste 0 1016.7 1.1 86
2019-10-12 23:00:00 20.3 7 Noroeste 9 Noroeste 0 1016.3 1 84
2019-10-12 22:00:00 21.1 8 Noroeste 11 Oeste 0 1015.7 1.2 83
2019-10-12 21:00:00 22.3 8 Oeste 15 Oeste 0 1015.6 1.1 82
2019-10-12 20:00:00 23.2 4 Noroeste 25 Sudeste 0 1015.3 0.5 79
2019-10-12 19:00:00 24.1 19 Este 35 Sudeste 0 1014.5 -0.7 75
2019-10-12 18:00:00 24.9 22 Este 37 Este 0 1014.5 -1.3 72
2019-10-12 17:00:00 25.5 21 Este 38 Este 0 1014.8 -2.4 70
2019-10-12 16:00:00 25.8 17 Sudeste 33 Este 0 1015.2 -2.6 68
2019-10-12 15:00:00 25.9 15 Sudeste 24 Este 0 1015.8 -1.9 66
2019-10-12 14:00:00 26.3 12 Este 20 Sudeste 0 1017.2 -0.4 58
2019-10-12 13:00:00 25.1 12 Este 29 Este 0 1017.8 0.9 60
2019-10-12 12:00:00 24.7 15 Nordeste 23 Este 0 1017.7 1.6 60
2019-10-12 11:00:00 22.5 5 Este 13 Nordeste 0 1017.6 1.2 80
2019-10-12 10:00:00 19.7 3 Nordeste 15 Nordeste 0 1016.9 0.2 89
2019-10-12 09:00:00 -- 6 Norte 12 Nordeste 0 1016.1 -0.4 88
2019-10-12 08:00:00 17.9 8 Norte 13 Norte 0 1016.4 -0.1 87
2019-10-12 07:00:00 17.5 3 Norte 9 Noroeste 0 1016.7 0.1 86
2019-10-12 06:00:00 18.3 8 Noroeste 13 Noroeste 0 1016.5 -0.9 85
2019-10-12 05:00:00 19 5 Noroeste 14 Oeste 0 1016.5 -1.3 84
2019-10-12 04:00:00 19.5 3 Nordeste 10 Norte 0 1016.6 -1.6 84
2019-10-12 03:00:00 20.1 5 Noroeste 12 Oeste 0 1017.4 -1 83
2019-10-12 02:00:00 20.6 6 Noroeste 11 Noroeste 0 1017.8 -0.7 83
2019-10-12 01:00:00 20 8 Norte 15 Noroeste 0 1018.2 0.4 82
2019-10-12 00:00:00 20.8 3 Norte 13 Noroeste 0 1018.4 1.2 80
2019-10-11 23:00:00 21.6 10 Oeste 16 Oeste 0 1018.5 1.6 81
2019-10-11 22:00:00 21.4 8 Noroeste 12 Noroeste 0 1017.8 0.7 78
2019-10-11 21:00:00 22.2 6 Noroeste 18 Oeste 0 1017.2 -0.5 73
2019-10-11 20:00:00 22.9 8 Oeste 14 Oeste 0 1016.9 -1.2 69
2019-10-11 19:00:00 23.8 3 Sudoeste 11 Oeste 0 1017.1 -1.3 66
2019-10-11 18:00:00 24.2 6 Oeste 17 Oeste 0 1017.7 -1.4 62
2019-10-11 17:00:00 25.9 9 Oeste 18 Sudoeste 0 1018.1 -1.4 57
2019-10-11 16:00:00 25.4 11 Oeste 22 Oeste 0 1018.4 -1.8 58
2019-10-11 15:00:00 25.1 10 Oeste 24 Sudoeste 0 1019.1 -1.5 63
2019-10-11 14:00:00 25.2 8 Sudoeste 18 Oeste 0 1019.5 -0.6 60
2019-10-11 13:00:00 25 9 Oeste 23 Oeste 0 1020.2 1 67
2019-10-11 12:00:00 24.2 10 Sudoeste 21 Sudoeste 0 1020.6 2.2 75
2019-10-11 11:00:00 23.6 12 Sudoeste 19 Oeste 0 1020.1 2.1 72
2019-10-11 10:00:00 22.6 7 Nordeste 25 Este 0 1019.2 1.2 61
2019-10-11 09:00:00 20.8 13 Este 23 Este 0 1018.4 0.3 79
2019-10-11 08:00:00 20 10 Este 19 Este 0 1018 -0.2 79
2019-10-11 07:00:00 21.3 13 Este 26 Este 0 1018 -0.6 75
2019-10-11 06:00:00 21.1 15 Este 26 Este 0 1018.1 -0.9 76
2019-10-11 05:00:00 21 16 Nordeste 30 Este 0 1018.2 -0.8 73
2019-10-11 04:00:00 21.7 23 Este 43 Este 0 1018.6 -0.5 75
2019-10-11 03:00:00 21.7 26 Este 52 Este 0 1019 -0.1 78
2019-10-11 02:00:00 22 33 Este 55 Este 0 1019 0.2 78
2019-10-11 01:00:00 22.1 30 Este 53 Este 0 1019.1 0.7 79
2019-10-11 00:00:00 22.1 29 Este 53 Sudeste 0 1019.1 1.1 78
2019-10-10 23:00:00 22.3 34 Este 53 Este 0 1018.8 1 78
2019-10-10 22:00:00 22.4 26 Este 46 Este 0 1018.4 0.6 77
2019-10-10 21:00:00 22.4 23 Este 37 Este 0 1018 0.1 78
2019-10-10 20:00:00 22.7 23 Este 47 Sudeste 0 1017.8 -0.3 77
2019-10-10 19:00:00 23.4 30 Este 46 Sudeste 0 1017.8 -0.5 74
2019-10-10 18:00:00 24.5 26 Este 43 Sudeste 0 1017.9 -0.5 70
2019-10-10 17:00:00 25 27 Sudeste 48 Este 0 1018.1 -1.1 67
2019-10-10 16:00:00 25.3 26 Sudeste 45 Este 0 1018.3 -1.3 66
2019-10-10 15:00:00 25.4 26 Sudeste 50 Sudeste 0 1018.4 -1.3 64
2019-10-10 14:00:00 25.5 22 Sudeste 39 Sudeste 0 1019.2 -0.3 64
2019-10-10 13:00:00 26.3 27 Este 42 Este 0 1019.6 0.4 58
2019-10-10 12:00:00 25.7 21 Este 39 Este 0 1019.7 1.4 61
2019-10-10 11:00:00 24.1 19 Este 34 Este 0 1019.5 1.6 65
2019-10-10 10:00:00 22.1 12 Este 24 Este 0 1019.2 1.6 81
2019-10-10 09:00:00 18 6 Norte 15 Este 0 1018.3 0.9 84
2019-10-10 08:00:00 18.6 6 Nordeste 12 Nordeste 0 1017.9 0.4 83
2019-10-10 07:00:00 20 5 Nordeste 24 Este 0 1017.6 0.2 83
2019-10-10 06:00:00 20.6 13 Este 28 Este 0 1017.4 -0.1 85
2019-10-10 05:00:00 20.3 14 Este 24 Este 0 1017.5 0.4 89
2019-10-10 04:00:00 20.2 13 Este 21 Este 0 1017.4 0 90
2019-10-10 03:00:00 18.8 6 Nordeste 10 Nordeste 0 1017.5 0.1 89
2019-10-10 02:00:00 19 8 Nordeste 11 Nordeste 0 1017.1 0 88
2019-10-10 01:00:00 18.7 7 Nordeste 8 Nordeste 0 1017.4 0.9 87
2019-10-10 00:00:00 19.6 6 Nordeste 12 Este 0 1017.4 1.4 86
2019-10-09 23:00:00 20.4 6 Este 10 Este 0 1017.1 1.4 84
2019-10-09 22:00:00 20.7 7 Este 10 Sudeste 0 1016.5 1.1 80
2019-10-09 21:00:00 21.4 2 Sudeste 5 Sudeste 0 1016 0.7 77
2019-10-09 20:00:00 22.5 4 Sudeste 10 Sudoeste 0 1015.7 0.1 74
2019-10-09 19:00:00 23 8 Sudoeste 15 Sudoeste 0 1015.4 -0.6 73
2019-10-09 18:00:00 23.8 9 Sudoeste 15 Sur 0 1015.3 -1 69
2019-10-09 17:00:00 23.8 10 Sudoeste 16 Sudoeste 0 1015.6 -1.3 67
2019-10-09 16:00:00 24.3 10 Sur 18 Sur 0 1016 -1.4 65
2019-10-09 15:00:00 24.3 11 Sur 17 Sur 0 1016.3 -1.4 64
2019-10-09 14:00:00 24.5 10 Sur 17 Sur 0 1016.9 -0.5 64
2019-10-09 13:00:00 24.1 10 Sur 16 Sudeste 0 1017.4 0.3 62
2019-10-09 12:00:00 24.2 9 Sudeste 16 Sudeste 0 1017.7 1.1 61
2019-10-09 11:00:00 23.3 9 Nordeste 14 Norte 0 1017.4 1 63
2019-10-09 10:00:00 18.9 6 Norte 11 Norte 0 1017.1 0.9 86
2019-10-09 09:00:00 16.1 9 Norte 11 Norte 0 1016.6 0.4 89
2019-10-09 08:00:00 15.8 7 Norte 10 Norte 0 1016.4 0.1 88
2019-10-09 07:00:00 15.8 8 Norte 10 Norte 0 1016.2 -0.9 88
2019-10-09 06:00:00 16.3 7 Norte 10 Nordeste 0 1016.2 -1.2 87
2019-10-09 05:00:00 16.6 7 Nordeste 10 Nordeste 0 1016.3 -1.3 87
2019-10-09 04:00:00 16.9 6 Nordeste 9 Norte 0 1017.1 -0.7 86
2019-10-09 03:00:00 17.4 6 Norte 9 Norte 0 1017.4 -0.4 85
2019-10-09 02:00:00 18 6 Norte 9 Norte 0 1017.6 0 84
2019-10-09 01:00:00 18.5 7 Norte 9 Norte 0 1017.8 0.4 82
2019-10-09 00:00:00 19.6 5 Este 11 Este 0 1017.8 0.4 81
2019-10-08 23:00:00 20.2 6 Este 13 Este 0 1017.6 0.1 79
2019-10-08 22:00:00 21.2 9 Este 15 Este 0 1017.4 -0.1 77
2019-10-08 21:00:00 21.5 9 Nordeste 19 Este 0 1017.4 -0.2 73
2019-10-08 20:00:00 22.4 9 Este 19 Este 0 1017.5 -0.4 68
2019-10-08 19:00:00 23.7 10 Este 29 Este 0 1017.5 -0.9 66
2019-10-08 18:00:00 24.3 18 Este 31 Sudeste 0 1017.6 -1.2 65
2019-10-08 17:00:00 25.2 19 Este 31 Este 0 1017.9 -1.6 62
2019-10-08 16:00:00 25.4 15 Sudeste 28 Este 0 1018.4 -1.4 61
2019-10-08 15:00:00 25.4 15 Este 32 Sudeste 0 1018.8 -1.3 62
2019-10-08 14:00:00 25 17 Sudeste 30 Sudeste 0 1019.5 -0.2 65
2019-10-08 13:00:00 24.8 18 Sudeste 30 Sudeste 0 1019.8 0.6 69
2019-10-08 12:00:00 25.4 13 Este 31 Este 0 1020.1 1.5 62
2019-10-08 11:00:00 24.4 19 Este 31 Este 0 1019.7 1.5 65
2019-10-08 10:00:00 23.3 17 Este 29 Este 0 1019.2 1.5 72
2019-10-08 09:00:00 21.8 15 Este 27 Este 0 1018.6 1.1 79
2019-10-08 08:00:00 21.5 18 Este 32 Este 0 1018.2 0.7 79
2019-10-08 07:00:00 21.2 17 Este 27 Este 0 1017.7 0.3 79
2019-10-08 06:00:00 21.3 15 Este 23 Este 0 1017.5 0.3 80
2019-10-08 05:00:00 21.2 14 Este 22 Este 0 1017.5 0.5 79
2019-10-08 04:00:00 21.1 9 Este 18 Este 0 1017.4 0.2 78
2019-10-08 03:00:00 21.6 11 Este 27 Este 0 1017.2 0 77
2019-10-08 02:00:00 22 19 Este 31 Este 0 1017 0.2 74
2019-10-08 01:00:00 21.3 18 Este 28 Este 0 1017.2 1.5 82
2019-10-08 00:00:00 20 18 Este 26 Este 0 1017.2 2 88
2019-10-07 23:00:00 20.8 10 Este 15 Este 0 1016.8 1.8 88
2019-10-07 22:00:00 20.2 0 Calma 10 Oeste 0 1015.7 0.8 86
2019-10-07 21:00:00 22 7 Oeste 17 Oeste 0 1015.2 0.2 85
2019-10-07 20:00:00 22.9 7 Oeste 15 Oeste 0 1015 -0.1 81
2019-10-07 19:00:00 23.8 9 Oeste 20 Oeste 0 1014.9 -0.5 77
2019-10-07 18:00:00 24.9 9 Oeste 22 Sudoeste 0 1015 -0.9 73
2019-10-07 17:00:00 24.8 10 Oeste 19 Sudoeste 0 1015.1 -1.1 71
2019-10-07 16:00:00 24.1 12 Sudoeste 18 Sudoeste 0 1015.4 -0.9 74
2019-10-07 15:00:00 23.8 10 Sudoeste 18 Sudoeste 0 1015.9 -0.7 74
2019-10-07 14:00:00 23.6 10 Sudoeste 17 Sudoeste 0 1016.2 -0.2 76
2019-10-07 13:00:00 23.2 12 Sudoeste 17 Sudoeste 0 1016.3 0.4 77
2019-10-07 12:00:00 22.6 11 Sudoeste 17 Sudoeste 0 1016.6 1.2 84
2019-10-07 11:00:00 21.2 7 Oeste 16 Oeste 0 1016.4 1.2 91
2019-10-07 10:00:00 19.7 4 Noroeste 10 Noroeste 0 1015.9 0.8 92
2019-10-07 09:00:00 15.8 7 Norte 10 Oeste 0 1015.4 0.1 92
2019-10-07 08:00:00 16.1 6 Noroeste 10 Noroeste 0 1015.2 -0.4 91
2019-10-07 07:00:00 16.9 7 Noroeste 10 Noroeste 0 1015.1 -1.2 91
2019-10-07 06:00:00 16.3 9 Noroeste 12 Noroeste 0 1015.3 -1.5 91
2019-10-07 05:00:00 16.5 6 Norte 8 Norte 0 1015.6 -1.2 91
2019-10-07 04:00:00 16.4 6 Norte 10 Noroeste 0 1016.3 -1 90
2019-10-07 03:00:00 16.8 7 Noroeste 8 Norte 0 1016.8 -0.7 90
2019-10-07 02:00:00 18.2 3 Noroeste 9 Noroeste 0 1016.8 -0.3 90
2019-10-07 01:00:00 18 7 Noroeste 9 Noroeste 0 1017.3 0.6 88
2019-10-07 00:00:00 18.6 4 Noroeste 5 Noroeste 0 1017.5 1.1 88
2019-10-06 23:00:00 19.1 4 Noroeste 10 Oeste 0 1017.1 0.6 87
2019-10-06 22:00:00 20.2 8 Oeste 11 Noroeste 0 1016.7 -0.1 86
2019-10-06 21:00:00 21 8 Oeste 11 Oeste 0 1016.4 -0.3 84
2019-10-06 20:00:00 22.3 6 Oeste 14 Oeste 0 1016.5 -0.5 82
2019-10-06 19:00:00 22.9 8 Sudoeste 15 Sudoeste 0 1016.8 -0.5 79
2019-10-06 18:00:00 23.2 10 Sudoeste 15 Sudoeste 0 1016.7 -1.1 77
2019-10-06 17:00:00 23.5 7 Sudoeste 15 Sur 0 1017 -1 76
2019-10-06 16:00:00 23.1 10 Sudoeste 19 Sudoeste 0 1017.3 -0.7 76
2019-10-06 15:00:00 22.4 12 Sudoeste 17 Sudoeste 0 1017.8 -0.3 79
2019-10-06 14:00:00 21.9 10 Sudoeste 16 Sudoeste 0 1018 0.2 80
2019-10-06 13:00:00 22.6 9 Sur 14 Sur 0 1018 0.6 80
2019-10-06 12:00:00 21.5 8 Sur 14 Sudoeste 0 1018.1 1.5 89
2019-10-06 11:00:00 20.5 5 Sudeste 9 Sudeste 0 1017.8 1.3 92
2019-10-06 10:00:00 19.2 4 Norte 6 Norte 0.2 1017.4 1.2 93
2019-10-06 09:00:00 16.4 5 Norte 10 Norte 0 1016.6 0.5 93
2019-10-06 08:00:00 16.9 6 Norte 11 Norte 0 1016.5 0.4 92
2019-10-06 07:00:00 17.7 6 Norte 10 Norte 0 1016.2 -0.3 92
2019-10-06 06:00:00 18.7 4 Nordeste 8 Norte 0 1016.1 -0.4 92
2019-10-06 05:00:00 17.8 5 Norte 9 Nordeste 0 1016.1 -0.1 92
2019-10-06 04:00:00 16.4 6 Norte 8 Norte 0 1016.5 0.3 91
2019-10-06 03:00:00 16.4 5 Norte 8 Norte 0 1016.5 0.4 90
2019-10-06 02:00:00 16.2 6 Nordeste 9 Norte 0 1016.2 0.5 90
2019-10-06 01:00:00 17.7 3 Nordeste 8 Norte 0 1016.2 0.9 89
2019-10-06 00:00:00 17.7 5 Norte 8 Norte 0 1016.1 1.1 88
2019-10-05 23:00:00 19.7 6 Oeste 10 Oeste 0 1015.7 1.3 87
2019-10-05 22:00:00 19.8 6 Oeste 10 Oeste 0 1015.3 1 85
2019-10-05 21:00:00 20.6 5 Oeste 14 Oeste 0 1015 0.5 83
2019-10-05 20:00:00 22 9 Oeste 19 Oeste 0 1014.4 -0.1 81
2019-10-05 19:00:00 23.4 11 Oeste 23 Oeste 0 1014.3 -0.5 74
2019-10-05 18:00:00 24.7 11 Oeste 25 Sudoeste 0 1014.5 -0.6 71
2019-10-05 17:00:00 24.7 11 Oeste 24 Sudoeste 0 1014.5 -1.2 71
2019-10-05 16:00:00 24.3 11 Sudoeste 23 Sudoeste 0 1014.8 -1.2 74
2019-10-05 15:00:00 23.6 12 Sudoeste 22 Oeste 0 1015.1 -0.8 74
2019-10-05 14:00:00 23.7 12 Sudoeste 19 Sudoeste 0 1015.7 0.1 74
2019-10-05 13:00:00 22.3 9 Sudoeste 15 Oeste 0 1016 0.8 85
2019-10-05 12:00:00 21 7 Oeste 15 Sudoeste 0 1015.9 1.2 91
2019-10-05 11:00:00 20.1 6 Sudoeste 10 Sudoeste 0 1015.6 1.3 93
2019-10-05 10:00:00 18.4 6 Norte 12 Este 0 1015.2 1 93
2019-10-05 09:00:00 16.2 6 Nordeste 9 Nordeste 0 1014.7 0.5 93
2019-10-05 08:00:00 17.5 4 Norte 7 Nordeste 0.2 1014.3 0.1 93
2019-10-05 07:00:00 19.1 4 Noroeste 9 Norte 0 1014.2 -0.4 92
2019-10-05 06:00:00 18.5 6 Norte 9 Norte 0 1014.2 -0.7 92
2019-10-05 05:00:00 18.3 7 Oeste 13 Noroeste 0 1014.2 -0.9 91
2019-10-05 04:00:00 19.3 7 Oeste 15 Oeste 0 1014.6 -0.7 91
2019-10-05 03:00:00 19.6 6 Noroeste 14 Oeste 0 1014.9 -0.6 91
2019-10-05 02:00:00 19.9 8 Noroeste 14 Oeste 0 1015.1 -0.4 90
2019-10-05 01:00:00 20.7 9 Oeste 19 Oeste 0 1015.3 0.1 90
2019-10-05 00:00:00 20.8 9 Oeste 14 Oeste 0 1015.5 0.4 89
2019-10-04 23:00:00 19.6 5 Oeste 12 Oeste 0 1015.5 0.6 87
2019-10-04 22:00:00 21.4 8 Oeste 14 Oeste 0 1015.2 0.2 86
2019-10-04 21:00:00 21.8 7 Oeste 12 Sudoeste 0 1015.1 -0.2 84
2019-10-04 20:00:00 22.5 6 Oeste 18 Oeste 0 1014.9 -0.7 81
2019-10-04 19:00:00 23.7 8 Oeste 20 Sudoeste 0 1015 -1.2 75
2019-10-04 18:00:00 24.4 11 Oeste 20 Sudoeste 0 1015.3 -1.6 72
2019-10-04 17:00:00 24.6 10 Oeste 19 Oeste 0 1015.6 -1.9 71
2019-10-04 16:00:00 24.6 10 Oeste 20 Oeste 0 1016.2 -1.4 71
2019-10-04 15:00:00 24.2 12 Sudoeste 21 Oeste 0 1016.9 -1 72
2019-10-04 14:00:00 23.4 10 Sur 17 Sudoeste 0 1017.5 -0.2 76
2019-10-04 13:00:00 23.2 8 Sur 16 Sur 0 1017.6 0.4 78
2019-10-04 12:00:00 22.4 9 Sudeste 15 Sudeste 0 1017.9 0.9 83
2019-10-04 11:00:00 21.1 6 Sudeste 11 Este 0 1017.7 1.2 89
2019-10-04 10:00:00 19 3 Norte 9 Norte 0 1017.2 1 91
2019-10-04 09:00:00 14.8 7 Norte 13 Nordeste 0 1017 0.8 92
2019-10-04 08:00:00 14.4 9 Norte 10 Norte 0 1016.5 0.2 91
2019-10-04 07:00:00 15.1 5 Nordeste 10 Norte 0 1016.2 -0.3 91
2019-10-04 06:00:00 14.8 6 Nordeste 9 Norte 0 1016.2 -0.7 91
2019-10-04 05:00:00 14.5 4 Norte 9 Norte 0 1016.3 -0.8 90
2019-10-04 04:00:00 15.8 5 Norte 10 Norte 0 1016.5 -0.9 90
2019-10-04 03:00:00 16.5 6 Norte 9 Norte 0 1016.9 -0.5 90
2019-10-04 02:00:00 17.3 6 Norte 12 Norte 0 1017.1 0.2 89
2019-10-04 01:00:00 16.4 5 Norte 8 Norte 0 1017.4 1 87
2019-10-04 00:00:00 18.1 6 Norte 10 Norte 0 1017.4 1.2 86
2019-10-03 23:00:00 18.9 4 Sudoeste 8 Oeste 0 1016.9 0.7 84
2019-10-03 22:00:00 20.5 5 Oeste 15 Oeste 0 1016.4 0.2 84
2019-10-03 21:00:00 21.3 7 Oeste 15 Oeste 0 1016.2 0 82
2019-10-03 20:00:00 22.4 13 Oeste 22 Oeste 0 1016.2 -0.3 78
2019-10-03 19:00:00 23.2 12 Oeste 26 Oeste 0 1016.2 -0.7 70
2019-10-03 18:00:00 24.5 16 Oeste 23 Oeste 0 1016.2 -1.3 62
2019-10-03 17:00:00 25.1 12 Oeste 27 Oeste 0 1016.5 -1.4 60
2019-10-03 16:00:00 25 15 Oeste 31 Oeste 0 1016.9 -1 61
2019-10-03 15:00:00 24.6 17 Oeste 31 Oeste 0 1017.5 -0.4 69
2019-10-03 14:00:00 24.8 18 Sudoeste 32 Sudoeste 0 1017.9 0.2 69
2019-10-03 13:00:00 24.1 17 Sudoeste 26 Sur 0 1017.9 0.7 65
2019-10-03 12:00:00 25.2 8 Sur 12 Sudoeste 0 1017.9 1.4 45
2019-10-03 11:00:00 24.9 3 Sudeste 11 Sudeste 0 1017.7 1.3 43
2019-10-03 10:00:00 19.3 2 Nordeste 10 Norte 0 1017.2 1.2 79
2019-10-03 09:00:00 15 6 Nordeste 12 Norte 0 1016.5 0.5 85
2019-10-03 08:00:00 14.4 5 Norte 8 Norte 0 1016.4 0.3 85
2019-10-03 07:00:00 15.3 6 Norte 9 Norte 0 1016 -0.1 86
2019-10-03 06:00:00 16 6 Noroeste 12 Noroeste 0 1016 -0.2 87
2019-10-03 05:00:00 16.7 7 Noroeste 10 Norte 0 1016.1 0.1 87
2019-10-03 04:00:00 17 9 Norte 12 Norte 0 1016.1 0 87
2019-10-03 03:00:00 17.6 10 Norte 12 Norte 0 1016.2 0.4 87
2019-10-03 02:00:00 18.8 6 Nordeste 9 Este 0 1016 0.8 86
2019-10-03 01:00:00 21.2 6 Este 21 Sudeste 0 1016.1 1.4 85
2019-10-03 00:00:00 21.9 14 Sudeste 28 Este 0 1015.8 1.8 83
2019-10-02 23:00:00 21.9 16 Sudeste 28 Sudeste 0 1015.2 1.8 80
2019-10-02 22:00:00 21.6 18 Este 27 Este 0 1014.7 1.4 80
2019-10-02 21:00:00 22.1 10 Sudeste 18 Sudeste 0 1014 0.7 79
2019-10-02 20:00:00 23.5 5 Sur 13 Sudoeste 0 1013.4 -0.2 68
2019-10-02 19:00:00 24.7 7 Oeste 18 Sudoeste 0 1013.3 -0.3 62
2019-10-02 18:00:00 25.7 8 Oeste 26 Oeste 0 1013.3 -0.5 61
2019-10-02 17:00:00 25.5 15 Oeste 30 Sudoeste 0 1013.6 -0.6 62
2019-10-02 16:00:00 25.4 17 Oeste 33 Oeste 0 1013.6 -0.9 63
2019-10-02 15:00:00 25.5 17 Oeste 32 Sudoeste 0 1013.8 -0.9 63
2019-10-02 14:00:00 25.8 15 Oeste 30 Oeste 0 1014.2 0.1 61
2019-10-02 13:00:00 26.4 11 Sudoeste 20 Sudoeste 0 1014.5 0.9 56
2019-10-02 12:00:00 26 10 Oeste 26 Oeste 0 1014.7 1.8 55
2019-10-02 11:00:00 25.5 3 Norte 7 Este 0 1014.1 1.2 53
2019-10-02 10:00:00 20.6 5 Norte 17 Nordeste 0 1013.6 1.4 77
2019-10-02 09:00:00 16.2 10 Norte 13 Nordeste 0 1012.9 1 85
2019-10-02 08:00:00 17 8 Norte 12 Noroeste 0 1012.9 1.2 84
2019-10-02 07:00:00 17 8 Norte 11 Noroeste 0 1012.2 0.2 79
2019-10-02 06:00:00 18.3 5 Sudoeste 16 Sudoeste 0 1011.9 -0.2 68
2019-10-02 05:00:00 17.7 9 Norte 13 Norte 0 1011.7 -0.2 71
2019-10-02 04:00:00 18.5 8 Norte 15 Norte 0 1012 0.2 73
2019-10-02 03:00:00 18.6 11 Norte 15 Norte 0 1012.1 0.5 81
2019-10-02 02:00:00 19.4 13 Norte 18 Norte 0 1011.9 1.1 85
2019-10-02 01:00:00 20.2 7 Norte 20 Nordeste 0 1011.8 1.5 83
2019-10-02 00:00:00 21.3 15 Nordeste 21 Nordeste 0 1011.6 1.2 82
2019-10-01 23:00:00 22.6 13 Este 21 Este 0 1010.8 0.4 78
2019-10-01 22:00:00 23.6 9 Sudoeste 36 Oeste 0 1010.3 -0.1 71
2019-10-01 21:00:00 23.9 19 Oeste 39 Oeste 0 1010.4 -0.3 71
2019-10-01 20:00:00 24.4 23 Oeste 48 Oeste 0 1010.4 -0.7 69
2019-10-01 19:00:00 25.5 21 Oeste 39 Oeste 0 1010.4 -1.4 62
2019-10-01 18:00:00 25.8 17 Oeste 35 Oeste 0 1010.7 -1.4 64
2019-10-01 17:00:00 26.1 11 Oeste 26 Oeste 0 1011.1 -1.9 67
2019-10-01 16:00:00 25.4 17 Oeste 29 Sudoeste 0 1011.8 -1.8 68
2019-10-01 15:00:00 25.9 14 Oeste 28 Sudoeste 0 1012.1 -2.1 69
2019-10-01 14:00:00 24.7 10 Oeste 24 Oeste 0 1013 -1.1 77
2019-10-01 13:00:00 22.1 11 Sudoeste 19 Sudoeste 0 1013.6 0.4 92
2019-10-01 12:00:00 20.2 4 Sudeste 9 Sudeste 0 1014.2 1.3 94
2019-10-01 11:00:00 19.5 5 Oeste 15 Oeste 0.2 1014.1 1.5 94
2019-10-01 10:00:00 18.8 6 Noroeste 10 Noroeste 0 1013.2 0.4 93
2019-10-01 09:00:00 18.4 3 Norte 4 Norte 0 1012.9 -0.3 93
2019-10-01 08:00:00 18.6 0 Calma 9 Nordeste 0 1012.6 -0.9 93
2019-10-01 07:00:00 19.4 5 Norte 14 Norte 0 1012.8 -1.4 92
2019-10-01 06:00:00 18.6 8 Norte 11 Norte 0 1013.2 -1.8 92
2019-10-01 05:00:00 17.1 5 Noroeste 9 Norte 0 1013.5 -1.4 91
2019-10-01 04:00:00 17.4 6 Norte 10 Norte 0 1014.2 -0.9 90
2019-10-01 03:00:00 17.1 5 Norte 7 Nordeste 0 1015 -0.1 90
2019-10-01 02:00:00 18 5 Nordeste 8 Nordeste 0 1014.9 -0.1 90
2019-10-01 01:00:00 18.1 5 Norte 6 Norte 0 1015.1 0.3 88
2019-10-01 00:00:00 19.3 3 Norte 9 Nordeste 0 1015.1 0.8 88
2019-09-30 23:00:00 19.8 5 Norte 9 Norte 0 1015 0.5 87
2019-09-30 22:00:00 21.9 6 Oeste 18 Sudoeste 0 1014.8 0.3 86
2019-09-30 21:00:00 21.8 10 Sudoeste 14 Sudoeste 0 1014.3 -0.5 83
2019-09-30 20:00:00 22.6 10 Oeste 25 Oeste 0 1014.5 -0.4 81
2019-09-30 19:00:00 23.1 15 Oeste 26 Oeste 0 1014.5 -0.8 79
2019-09-30 18:00:00 24.2 12 Oeste 26 Sudoeste 0 1014.8 -1.2 74
2019-09-30 17:00:00 25.4 13 Oeste 26 Sudoeste 0 1014.9 -1.9 69
2019-09-30 16:00:00 25.7 13 Oeste 50 Este 0 1015.3 -2 67
2019-09-30 15:00:00 25.4 12 Oeste 22 Sudoeste 0 1016 -1.5 68
2019-09-30 14:00:00 24.9 9 Sudoeste 19 Sudoeste 0 1016.8 -0.7 70
2019-09-30 13:00:00 24.6 10 Oeste 22 Sudoeste 0 1017.3 0.5 70
2019-09-30 12:00:00 23.4 9 Oeste 22 Oeste 0 1017.5 1.3 75
2019-09-30 11:00:00 22.2 9 Oeste 18 Oeste 0 1017.5 1.6 85
2019-09-30 10:00:00 21.4 6 Noroeste 11 Noroeste 0 1016.8 1 88
2019-09-30 09:00:00 21.3 8 Noroeste 19 Oeste 0 1016.2 0.4 89
2019-09-30 08:00:00 21.1 10 Oeste 18 Oeste 0 1015.9 0 90
2019-09-30 07:00:00 21.3 6 Oeste 17 Oeste 0 1015.8 -0.6 91
2019-09-30 06:00:00 21.4 7 Oeste 14 Oeste 0 1015.8 -1 91
2019-09-30 05:00:00 20.8 6 Oeste 14 Oeste 0 1015.9 -1 91
2019-09-30 04:00:00 21.3 10 Oeste 19 Oeste 0 1016.4 -0.7 91
2019-09-30 03:00:00 21.6 13 Oeste 28 Oeste 0 1016.8 -0.4 90
2019-09-30 02:00:00 21 12 Oeste 18 Oeste 0 1016.9 -0.3 89
2019-09-30 01:00:00 19.8 9 Noroeste 11 Noroeste 0 1017.1 0.3 88
2019-09-30 00:00:00 21.6 11 Oeste 17 Oeste 0 1017.2 0.7 87
2019-09-29 23:00:00 21.9 9 Oeste 16 Oeste 0 1017.2 1 85
2019-09-29 22:00:00 21.6 9 Oeste 17 Oeste 0 1016.8 0.5 83
2019-09-29 21:00:00 22.7 13 Oeste 18 Oeste 0 1016.5 -0.1 80
2019-09-29 20:00:00 23.7 8 Oeste 17 Oeste 0 1016.2 -1.1 73
2019-09-29 19:00:00 25.1 9 Oeste 20 Sudoeste 0 1016.3 -1.4 70
2019-09-29 18:00:00 27.2 10 Oeste 22 Oeste 0 1016.6 -1.6 62
2019-09-29 17:00:00 26.3 10 Oeste 21 Oeste 0 1017.3 -1.8 66
2019-09-29 16:00:00 26.3 10 Oeste 22 Sudoeste 0 1017.7 -1.8 68
2019-09-29 15:00:00 25 12 Sudoeste 21 Sudoeste 0 1018.2 -1.5 73
2019-09-29 14:00:00 25.2 10 Sudoeste 17 Sudoeste 0 1019.1 -0.2 74
2019-09-29 13:00:00 24.2 8 Sudoeste 13 Sudoeste 0 1019.5 0.8 79
2019-09-29 12:00:00 23.2 6 Sudoeste 12 Sudoeste 0 1019.7 1.7 87
2019-09-29 11:00:00 22.3 2 Sudeste 9 Nordeste 0 1019.3 2.1 91
2019-09-29 10:00:00 20.9 3 Norte 8 Norte 0 1018.7 1.6 92
2019-09-29 09:00:00 18 2 Sur 6 Sudeste 0 1018 0.7 92
2019-09-29 08:00:00 17.9 3 Nordeste 9 Norte 0.2 1017.2 -0.8 92
2019-09-29 07:00:00 18.4 7 Nordeste 9 Nordeste 0 1017.1 -1.3 91
2019-09-29 06:00:00 19 8 Norte 11 Norte 0 1017.3 -1.5 91
2019-09-29 05:00:00 19.6 8 Norte 11 Norte 0 1018 -1 90
2019-09-29 04:00:00 19.9 7 Norte 9 Norte 0 1018.4 -0.8 90
2019-09-29 03:00:00 19.6 6 Norte 8 Norte 0 1018.8 -0.6 89
2019-09-29 02:00:00 20 5 Noroeste 7 Noroeste 0 1019 -0.1 88
2019-09-29 01:00:00 20.4 4 Norte 6 Norte 0 1019.2 0.8 87
2019-09-29 00:00:00 21.1 4 Noroeste 9 Norte 0 1019.4 1.6 86
2019-09-28 23:00:00 20.9 4 Noroeste 6 Noroeste 0 1019.1 1.5 83
2019-09-28 22:00:00 21.5 2 Sudeste 8 Este 0 1018.4 0.6 82
2019-09-28 21:00:00 22.9 4 Este 14 Este 0 1017.8 -0.2 81
2019-09-28 20:00:00 24 9 Este 15 Este 0 1017.6 -0.6 79
2019-09-28 19:00:00 25.1 9 Sudeste 17 Sudeste 0 1017.8 -0.7 74
2019-09-28 18:00:00 26.2 10 Sudeste 17 Sudeste 0 1018 -0.9 63
2019-09-28 17:00:00 26.3 7 Sudeste 15 Sur 0 1018.2 -1.3 59
2019-09-28 16:00:00 26.2 9 Sur 19 Sudeste 0 1018.5 -1.5 62
2019-09-28 15:00:00 25.7 9 Sur 18 Sur 0 1018.9 -1.2 68
2019-09-28 14:00:00 24.6 9 Sur 14 Sur 0 1019.5 -0.3 71
2019-09-28 13:00:00 23.5 8 Sudoeste 14 Sudoeste 0 1020 1.1 74
2019-09-28 12:00:00 22.8 9 Sudoeste 14 Sudoeste 0 1020.1 1.8 83
2019-09-28 11:00:00 21.6 5 Sudoeste 9 Sur 0 1019.8 2.4 91
2019-09-28 10:00:00 21 0 Calma 9 Norte 0 1018.9 1.9 92
2019-09-28 09:00:00 18 4 Norte 8 Norte 0 1018.3 1.3 93
2019-09-28 08:00:00 17.4 6 Norte 10 Norte 0 1017.4 0.4 92
2019-09-28 07:00:00 16.9 6 Norte 9 Norte 0 1017 -0.3 90
2019-09-28 06:00:00 17.3 6 Norte 9 Norte 0 1017 -1 91
2019-09-28 05:00:00 18 3 Noroeste 8 Oeste 0 1017 -1.6 91
2019-09-28 04:00:00 18.7 5 Oeste 10 Noroeste 0 1017.3 -1.4 90
2019-09-28 03:00:00 19.1 5 Noroeste 11 Noroeste 0 1018 -0.8 90
2019-09-28 02:00:00 18.7 6 Norte 10 Norte 0 1018.6 0.1 89
2019-09-28 01:00:00 19.3 7 Noroeste 9 Noroeste 0 1018.7 0.9 88
2019-09-28 00:00:00 19.6 8 Noroeste 15 Noroeste 0 1018.8 1.7 87
2019-09-27 23:00:00 21.2 10 Oeste 18 Oeste 0 1018.5 1.7 86
2019-09-27 22:00:00 21.8 10 Oeste 17 Oeste 0 1017.8 1.3 84
2019-09-27 21:00:00 21.3 3 Noroeste 19 Oeste 0 1017.1 0.5 81
2019-09-27 20:00:00 22.9 12 Oeste 22 Oeste 0 1016.8 -0.1 78
2019-09-27 19:00:00 24 10 Oeste 25 Oeste 0 1016.5 -0.9 73
2019-09-27 18:00:00 24.8 12 Oeste 24 Oeste 0 1016.6 -1.7 70
2019-09-27 17:00:00 25.7 12 Oeste 24 Sudoeste 0 1016.9 -2 66
2019-09-27 16:00:00 25.8 12 Oeste 23 Oeste 0 1017.4 -1.8 66
2019-09-27 15:00:00 25 12 Sudoeste 21 Sudoeste 0 1018.3 -1.2 69
2019-09-27 14:00:00 25.1 10 Sudoeste 24 Sudoeste 0 1018.9 -0.3 70
2019-09-27 13:00:00 24.4 11 Sudoeste 20 Sudoeste 0 1019.2 0.4 73
2019-09-27 12:00:00 24 10 Sudoeste 16 Sudoeste 0 1019.5 1.2 77
2019-09-27 11:00:00 22.1 5 Noroeste 14 Noroeste 0 1019.2 1.3 90
2019-09-27 10:00:00 21.6 5 Noroeste 8 Noroeste 0 1018.8 1.2 92
2019-09-27 09:00:00 19.7 6 Norte 8 Norte 0 1018.3 0.6 91
2019-09-27 08:00:00 18.4 6 Noroeste 8 Norte 0 1017.9 -0.1 91
2019-09-27 07:00:00 18.6 6 Norte 9 Norte 0 1017.6 -0.8 91
2019-09-27 06:00:00 19.3 7 Norte 9 Norte 0 1017.7 -1.1 90
2019-09-27 05:00:00 19.8 7 Norte 12 Noroeste 0 1018 -0.9 90
2019-09-27 04:00:00 20.7 9 Norte 13 Noroeste 0 1018.4 -0.9 89
2019-09-27 03:00:00 20.5 6 Norte 8 Norte 0 1018.8 -0.3 88
2019-09-27 02:00:00 21.8 3 Norte 5 Noroeste 0 1018.9 0.1 88
2019-09-27 01:00:00 21.5 2 Nordeste 5 Sudoeste 0 1019.3 1 87
2019-09-27 00:00:00 20.7 3 Sudeste 7 Sudeste 0 1019.1 1.5 85
2019-09-26 23:00:00 21.6 4 Este 9 Sudeste 0 1018.8 1.4 84
2019-09-26 22:00:00 22.6 6 Este 10 Este 0 1018.3 1 83
2019-09-26 21:00:00 23 4 Este 9 Sudeste 0 1017.6 0.3 81
2019-09-26 20:00:00 24 6 Sudeste 12 Sudeste 0 1017.4 -0.2 77
2019-09-26 19:00:00 24.9 6 Sudeste 15 Sudeste 0 1017.3 -0.6 74
2019-09-26 18:00:00 25 10 Sudeste 17 Sur 0 1017.3 -0.8 73
2019-09-26 17:00:00 25.5 10 Sudeste 21 Sudeste 0 1017.6 -1.3 72
2019-09-26 16:00:00 26.1 12 Sudeste 21 Sudeste 0 1017.9 -1.2 72
2019-09-26 15:00:00 26.2 13 Sudeste 30 Sudeste 0 1018.1 -0.9 70
2019-09-26 14:00:00 26.3 17 Sudeste 28 Sudeste 0 1018.9 0.2 69
2019-09-26 13:00:00 26.3 13 Sudeste 22 Sudeste 0 1019.1 1.1 67
2019-09-26 12:00:00 25.8 13 Este 23 Este 0 1019 1.6 64
2019-09-26 11:00:00 25.6 13 Este 31 Este 0 1018.7 2.1 64
2019-09-26 10:00:00 24.4 13 Este 58 Este 0 1018 1.9 71
2019-09-26 09:00:00 22 9 Nordeste 35 Sudeste 0 1017.4 1.4 73
2019-09-26 08:00:00 22.3 21 Sudeste 35 Este 0 1016.6 0.5 77
2019-09-26 07:00:00 21.1 7 Nordeste 34 Este 0 1016.1 0.2 85
2019-09-26 06:00:00 21.2 19 Este 30 Este 0 1016 -0.3 90
2019-09-26 05:00:00 20 8 Este 13 Este 0 1016.1 -0.2 90
2019-09-26 04:00:00 21.4 11 Este 18 Este 0 1015.9 -0.4 90
2019-09-26 03:00:00 21.4 8 Nordeste 11 Este 0 1016.3 0.2 90
2019-09-26 02:00:00 22 8 Este 17 Este 0 1016.3 0.7 89
2019-09-26 01:00:00 22.1 10 Sudeste 18 Este 0 1016.3 1.4 88
2019-09-26 00:00:00 22.3 10 Este 16 Sudeste 0 1016.1 2 87
2019-09-25 23:00:00 22.4 7 Sudeste 12 Sudeste 0 1015.6 1.8 85
2019-09-25 22:00:00 22.4 7 Sur 14 Sur 0 1014.9 1.2 84
2019-09-25 21:00:00 22.7 10 Sudoeste 15 Sudoeste 0 1014.1 0.4 83
2019-09-25 20:00:00 23.6 9 Sudoeste 21 Sudoeste 0 1013.8 -0.1 79
2019-09-25 19:00:00 24.5 14 Sudoeste 31 Sudoeste 0 1013.7 -0.6 73
2019-09-25 18:00:00 26.5 13 Sudoeste 36 Oeste 0 1013.7 -1.3 64
2019-09-25 17:00:00 26.5 21 Oeste 35 Oeste 0 1013.9 -1.6 59
2019-09-25 16:00:00 26.3 13 Oeste 26 Sudoeste 0 1014.3 -1.6 65
2019-09-25 15:00:00 24.8 12 Sudoeste 22 Sudoeste 0 1015 -1.1 71
2019-09-25 14:00:00 24.6 11 Sudoeste 19 Oeste 0 1015.5 -0.1 73
2019-09-25 13:00:00 24.1 10 Sur 16 Sudoeste 0 1015.9 0.6 75
2019-09-25 12:00:00 23.8 9 Sur 14 Sur 0 1016.1 1.4 77
2019-09-25 11:00:00 22.3 4 Sudeste 51 Sudeste 0 1015.6 1.1 88
2019-09-25 10:00:00 20.3 6 Norte 55 Nordeste 0 1015.3 0.7 91
2019-09-25 09:00:00 16.5 6 Norte 12 Norte 0 1014.7 0.4 92
2019-09-25 08:00:00 16.2 8 Nordeste 10 Nordeste 0 1014.5 -0.1 91
2019-09-25 07:00:00 16.2 8 Norte 9 Norte 0 1014.6 -0.4 91
2019-09-25 06:00:00 16.6 7 Nordeste 10 Norte 0 1014.3 -1 90
2019-09-25 05:00:00 17.2 5 Norte 9 Noroeste 0 1014.6 -0.9 90
2019-09-25 04:00:00 17.4 8 Noroeste 11 Norte 0 1015 -0.9 89
2019-09-25 03:00:00 18 8 Noroeste 14 Oeste 0 1015.3 -0.9 88
2019-09-25 02:00:00 18.3 10 Noroeste 13 Oeste 0 1015.5 -0.7 87
2019-09-25 01:00:00 18.6 10 Noroeste 13 Noroeste 0 1015.9 -0.1 85
2019-09-25 00:00:00 19.4 8 Noroeste 20 Oeste 0 1016.2 0.6 83
2019-09-24 23:00:00 21.8 13 Oeste 22 Sudoeste 0 1016.2 0.3 82
2019-09-24 22:00:00 21.8 12 Oeste 24 Oeste 0 1016 0 76
2019-09-24 21:00:00 21.6 13 Oeste 28 Noroeste 0 1015.6 -0.8 73
2019-09-24 20:00:00 22.6 19 Oeste 37 Oeste 0 1015.9 -1 71
2019-09-24 19:00:00 23.6 19 Oeste 32 Sudoeste 0 1016 -1.6 65
2019-09-24 18:00:00 25.4 14 Oeste 30 Sudoeste 0 1016.4 -1.8 60
2019-09-24 17:00:00 26.1 14 Oeste 30 Sudoeste 0 1016.9 -1.8 58
2019-09-24 16:00:00 25.5 18 Oeste 31 Oeste 0 1017.6 -1.5 56
2019-09-24 15:00:00 26.3 14 Oeste 28 Sudoeste 0 1018.2 -1.2 53
2019-09-24 14:00:00 26.3 13 Oeste 24 Oeste 0 1018.7 -0.3 52
2019-09-24 13:00:00 25.7 12 Oeste 23 Sudoeste 0 1019.1 0.4 61
2019-09-24 12:00:00 25 12 Oeste 21 Sudoeste 0 1019.4 1 63
2019-09-24 11:00:00 23.7 10 Oeste 16 Oeste 0 1019 0.7 61
2019-09-24 10:00:00 19.6 5 Norte 8 Norte 0 1018.7 0.4 89
2019-09-24 09:00:00 16.3 4 Noroeste 12 Oeste 0 1018.4 0 90
2019-09-24 08:00:00 15.7 8 Noroeste 12 Noroeste 0 1018.3 -0.1 90
2019-09-24 07:00:00 15.6 11 Noroeste 13 Norte 0 1018.3 -0.6 90
2019-09-24 06:00:00 16.4 5 Noroeste 7 Norte 0 1018.4 -0.9 89
2019-09-24 05:00:00 16.3 4 Norte 7 Norte 0 1018.4 -1.2 89
2019-09-24 04:00:00 16.5 5 Norte 7 Norte 0 1018.9 -1 88
2019-09-24 03:00:00 17.9 4 Norte 8 Norte 0 1019.3 -0.6 86
2019-09-24 02:00:00 17.5 4 Norte 5 Norte 0 1019.6 -0.1 84
2019-09-24 01:00:00 18.7 3 Norte 5 Norte 0 1019.9 0.5 84
2019-09-24 00:00:00 19.1 5 Norte 6 Norte 0 1019.9 1.1 81
2019-09-23 23:00:00 20.3 2 Oeste 4 Noroeste 0 1019.7 1.4 79
2019-09-23 22:00:00 21.4 3 Oeste 9 Oeste 0 1019.4 1.1 77
2019-09-23 21:00:00 22.3 5 Oeste 8 Oeste 0 1018.8 0.5 75
2019-09-23 20:00:00 23.3 4 Sudoeste 9 Sudoeste 0 1018.3 -0.2 74
2019-09-23 19:00:00 23.9 6 Sudoeste 12 Sudoeste 0 1018.3 -0.3 71
2019-09-23 18:00:00 24.8 6 Sur 13 Sur 0 1018.3 -0.5 69
2019-09-23 17:00:00 25.2 6 Sur 16 Sur 0 1018.5 -0.6 69
2019-09-23 16:00:00 25.2 7 Sur 18 Sur 0 1018.6 -0.9 67
2019-09-23 15:00:00 25.4 9 Sur 18 Sudeste 0 1018.8 -1 63
2019-09-23 14:00:00 26.5 7 Sudeste 21 Sudeste 0 1019.1 -0.2 58
2019-09-23 13:00:00 25.4 7 Oeste 18 Oeste 0 1019.5 0.8 65
2019-09-23 12:00:00 24.1 9 Sudoeste 17 Sudoeste 0 1019.8 1.9 70
2019-09-23 11:00:00 22.9 11 Sur 17 Sudeste 0 1019.3 2.1 80
2019-09-23 10:00:00 21.9 11 Sudeste 20 Este 0 1018.7 2.1 89
2019-09-23 09:00:00 18 9 Nordeste 12 Nordeste 0 1017.9 1.9 90
2019-09-23 08:00:00 17 3 Nordeste 12 Norte 0 1017.2 1.5 89
2019-09-23 07:00:00 17.8 5 Norte 12 Noroeste 0 1016.6 1 88
2019-09-23 06:00:00 18.7 7 Norte 12 Oeste 0 1016 0.4 86
2019-09-23 05:00:00 20.1 7 Oeste 13 Noroeste 0 1015.7 0.2 84
2019-09-23 04:00:00 21.3 9 Oeste 17 Oeste 0 1015.6 0.5 81
2019-09-23 03:00:00 22.1 12 Oeste 28 Oeste 0 1015.6 0.5 81
2019-09-23 02:00:00 22.2 15 Oeste 41 Oeste 0 1015.5 0.9 82
2019-09-23 01:00:00 22.4 24 Oeste 37 Oeste 0 1015.1 1.1 81
2019-09-23 00:00:00 22.6 24 Oeste 41 Oeste 0 1015.1 1.6 78
2019-09-22 23:00:00 22.7 30 Oeste 49 Oeste 0 1014.6 1.7 74
2019-09-22 22:00:00 23.2 34 Oeste 55 Oeste 0 1014 1.4 70
2019-09-22 21:00:00 23.6 31 Oeste 58 Oeste 0 1013.5 1 68
2019-09-22 20:00:00 24.1 37 Oeste 63 Oeste 0 1012.9 -0.1 69
2019-09-22 19:00:00 24.4 43 Oeste 70 Oeste 0 1012.6 -0.6 71
2019-09-22 18:00:00 24.9 39 Oeste 60 Oeste 0 1012.5 -1 72
2019-09-22 17:00:00 25.6 35 Oeste 54 Oeste 0 1013 -1.1 71
2019-09-22 16:00:00 24.6 36 Oeste 53 Oeste 0 1013.2 -1 73
2019-09-22 15:00:00 24.8 28 Oeste 48 Oeste 0 1013.5 -0.7 72
2019-09-22 14:00:00 24.6 33 Oeste 49 Oeste 0 1014.1 0 71
2019-09-22 13:00:00 24.9 30 Oeste 51 Oeste 0 1014.2 0.3 70
2019-09-22 12:00:00 25.5 29 Oeste 45 Oeste 0 1014.2 0.8 63
2019-09-22 11:00:00 24.4 27 Oeste 39 Oeste 0 1014.1 1.1 69
2019-09-22 10:00:00 23.2 22 Oeste 40 Oeste 0 1013.9 1.2 80
2019-09-22 09:00:00 22.1 19 Oeste 37 Oeste 0 1013.4 1 83
2019-09-22 08:00:00 22 19 Oeste 37 Oeste 0 1013 0.1 81
2019-09-22 07:00:00 22.5 18 Oeste 36 Oeste 0 1012.7 -0.2 84
2019-09-22 06:00:00 22.6 18 Oeste 39 Sudoeste 0 1012.4 -0.9 82
2019-09-22 05:00:00 22.9 22 Oeste 47 Oeste 0 1012.9 -0.4 76
2019-09-22 04:00:00 22.8 23 Oeste 48 Oeste 0 1012.9 -0.4 78
2019-09-22 03:00:00 23 30 Oeste 45 Oeste 0 1013.3 -0.2 74
2019-09-22 02:00:00 23 28 Oeste 43 Oeste 0 1013.3 -0.1 79
2019-09-22 01:00:00 23.3 21 Oeste 38 Oeste 0 1013.3 0.3 83
2019-09-22 00:00:00 23.4 19 Oeste 36 Oeste 0 1013.5 1 83